Time;durP1;ratioP1;P1;durP2;ratioP2;P2;SDS_P1;SDS_P2;PMS_P1;PMS_P2;Temp;Humidity;BMP_temperature;BMP_pressure;BME280_temperature;BME280_humidity;BME280_pressure;Samples;Min_cycle;Max_cycle;Signal;HPM_P1;HPM_P2
2022/12/27 00:00:50;;;;;;;4.63;1.30;;;;;;;19.37;54.00;101360.28;4988404;28;20287;-69
2022/12/27 00:03:15;;;;;;;4.60;1.40;;;;;;;19.37;53.88;101359.47;4971002;28;20643;-69
2022/12/27 00:05:45;;;;;;;4.43;1.23;;;;;;;19.37;54.24;101359.47;4986474;28;20265;-68
2022/12/27 00:08:10;;;;;;;3.40;1.30;;;;;;;19.37;54.37;101365.22;4952344;28;20630;-68
2022/12/27 00:10:39;;;;;;;6.23;1.80;;;;;;;19.39;54.20;101359.94;4936255;28;20434;-69
2022/12/27 00:13:04;;;;;;;9.83;1.70;;;;;;;19.36;54.03;101370.09;4954415;28;20197;-68
2022/12/27 00:15:30;;;;;;;4.93;1.10;;;;;;;19.38;54.30;101367.72;4951793;28;20418;-68
2022/12/27 00:17:55;;;;;;;3.57;1.30;;;;;;;19.41;54.13;101371.88;5003021;28;20339;-68
2022/12/27 00:20:21;;;;;;;6.20;1.40;;;;;;;19.39;54.22;101375.09;4935751;28;20653;-68
2022/12/27 00:22:46;;;;;;;3.40;1.50;;;;;;;19.38;54.30;101376.31;4980839;28;20231;-68
2022/12/27 00:25:12;;;;;;;4.43;1.30;;;;;;;19.37;54.27;101371.75;4971193;28;20181;-68
2022/12/27 00:27:37;;;;;;;5.10;1.37;;;;;;;19.38;54.71;101375.47;4980967;28;20187;-69
2022/12/27 00:30:03;;;;;;;3.87;1.60;;;;;;;19.39;54.27;101368.53;5018668;28;20253;-69
2022/12/27 00:32:29;;;;;;;3.57;1.30;;;;;;;19.36;54.34;101372.13;4955443;28;20189;-69
2022/12/27 00:34:54;;;;;;;3.73;1.77;;;;;;;19.34;54.74;101375.34;4952872;28;20220;-68
2022/12/27 00:37:19;;;;;;;4.17;1.60;;;;;;;19.36;54.43;101372.94;4969143;28;20540;-69
2022/12/27 00:39:45;;;;;;;3.40;1.10;;;;;;;19.35;54.54;101374.16;4937599;28;20568;-69
2022/12/27 00:42:11;;;;;;;4.23;1.57;;;;;;;19.32;54.95;101379.78;5035542;28;20175;-68
2022/12/27 00:44:36;;;;;;;11.40;1.70;;;;;;;19.36;54.56;101380.72;5033243;28;20457;-68
2022/12/27 00:47:02;;;;;;;2.97;1.47;;;;;;;19.34;54.39;101383.09;4952013;28;20991;-68
2022/12/27 00:49:27;;;;;;;4.40;1.30;;;;;;;19.37;54.82;101385.25;5018590;28;20541;-68
2022/12/27 00:51:53;;;;;;;3.73;0.80;;;;;;;19.34;54.62;101395.41;4958831;28;20239;-68
2022/12/27 00:54:18;;;;;;;2.60;1.30;;;;;;;19.31;54.64;101396.09;4987988;28;20162;-69
2022/12/27 00:56:43;;;;;;;4.40;1.60;;;;;;;19.33;54.57;101393.72;4984236;28;20187;-68
2022/12/27 00:59:09;;;;;;;2.53;1.20;;;;;;;19.33;54.50;101393.72;4950885;28;20739;-69
2022/12/27 01:01:35;;;;;;;2.23;1.00;;;;;;;19.31;54.56;101396.09;5018649;28;20627;-68
2022/12/27 01:04:00;;;;;;;2.73;1.30;;;;;;;19.29;54.82;101395.66;5012844;28;20274;-68
2022/12/27 01:06:27;;;;;;;5.07;1.60;;;;;;;19.30;54.96;101394.44;4977015;28;20173;-69
2022/12/27 01:08:54;;;;;;;4.50;1.57;;;;;;;19.33;54.68;101399.47;4953831;28;20206;-68
2022/12/27 01:11:20;;;;;;;4.53;1.40;;;;;;;19.31;54.84;101396.09;4954022;28;20433;-68
2022/12/27 01:13:45;;;;;;;4.30;1.20;;;;;;;19.31;54.77;101404.69;4951008;28;20469;-69
2022/12/27 01:16:21;;;;;;;3.20;1.10;;;;;;;19.27;54.88;101403.75;4953917;28;20209;-68
2022/12/27 01:18:46;;;;;;;4.57;1.50;;;;;;;19.31;54.91;101406.75;4969454;28;20213;-68
2022/12/27 01:21:13;;;;;;;3.40;1.33;;;;;;;19.30;54.88;101410.78;4974022;28;20420;-68
2022/12/27 01:23:39;;;;;;;5.00;1.57;;;;;;;19.31;54.77;101412.47;4957979;28;20543;-68
2022/12/27 01:26:07;;;;;;;3.53;1.30;;;;;;;19.28;54.98;101408.28;4973789;28;20429;-69
2022/12/27 01:28:32;;;;;;;3.97;1.30;;;;;;;19.30;54.78;101407.91;4940464;28;20197;-68
2022/12/27 01:31:02;;;;;;;3.60;1.13;;;;;;;19.31;54.95;101406.75;4971545;28;20444;-68
2022/12/27 01:33:28;;;;;;;3.93;1.33;;;;;;;19.28;54.73;101408.28;4958473;28;20178;-68
2022/12/27 01:35:53;;;;;;;3.67;1.07;;;;;;;19.29;54.56;101414.84;4982503;28;20449;-68
2022/12/27 01:38:19;;;;;;;4.33;1.10;;;;;;;19.30;54.79;101411.63;4969515;28;20239;-68
2022/12/27 01:40:44;;;;;;;2.97;1.27;;;;;;;19.29;54.68;101414.84;4969096;28;20217;-68
2022/12/27 01:43:16;;;;;;;3.13;1.10;;;;;;;19.28;54.74;101411.16;4954020;28;20191;-68
2022/12/27 01:45:42;;;;;;;2.97;1.20;;;;;;;19.33;54.67;101427.25;5021612;28;20206;-68
2022/12/27 01:48:16;;;;;;;3.30;1.43;;;;;;;19.28;54.88;101430.34;4964602;28;20531;-68
2022/12/27 01:50:55;;;;;;;2.70;1.17;;;;;;;19.30;54.96;101433.69;4941160;28;20192;-68
2022/12/27 01:53:22;;;;;;;3.83;1.43;;;;;;;19.28;54.91;101436.94;4969788;28;20463;-69
2022/12/27 01:55:51;;;;;;;5.17;1.47;;;;;;;19.30;54.75;101440.25;4957537;28;20934;-69
2022/12/27 01:58:37;;;;;;;3.10;1.40;;;;;;;19.28;55.14;101448.38;4973897;28;20429;-68
2022/12/27 02:01:03;;;;;;;6.90;1.33;;;;;;;19.27;54.79;101446.69;4978622;28;20453;-68
2022/12/27 02:03:34;;;;;;;2.80;1.17;;;;;;;19.26;55.05;101458.53;4978809;28;20426;-68
2022/12/27 02:06:01;;;;;;;2.60;1.00;;;;;;;19.27;54.83;101461.00;4951966;28;20450;-68
2022/12/27 02:08:44;;;;;;;4.30;1.40;;;;;;;19.27;54.84;101463.06;5021040;28;20843;-69
2022/12/27 02:11:10;;;;;;;3.10;1.00;;;;;;;19.28;55.09;101465.56;4956837;28;20445;-68
2022/12/27 02:13:40;;;;;;;6.53;1.97;;;;;;;19.27;54.85;101463.88;4969850;28;20474;-68
2022/12/27 02:16:13;;;;;;;2.87;1.07;;;;;;;19.26;54.94;101459.34;4945129;28;20718;-68
2022/12/27 02:18:39;;;;;;;2.63;1.47;;;;;;;19.25;55.02;101453.97;4940782;28;20913;-69
2022/12/27 02:21:49;;;;;;;1.90;0.87;;;;;;;19.26;54.93;101462.19;4969743;28;20456;-68
2022/12/27 02:24:39;;;;;;;2.33;0.97;;;;;;;19.26;54.96;101467.94;4891572;29;20275;-68
2022/12/27 02:27:46;;;;;;;2.37;1.20;;;;;;;19.29;54.87;101467.22;4894591;28;20512;-69
2022/12/27 02:30:12;;;;;;;3.13;1.20;;;;;;;19.27;55.08;101466.72;4965989;28;20499;-68
2022/12/27 02:33:12;;;;;;;8.63;1.97;;;;;;;19.25;55.08;101465.41;4961439;28;20904;-68
2022/12/27 02:35:40;;;;;;;2.43;1.10;;;;;;;19.25;54.82;101459.69;4957906;28;20246;-68
2022/12/27 02:38:17;;;;;;;3.63;1.30;;;;;;;19.25;54.79;101462.56;4949387;28;21109;-68
2022/12/27 02:55:03;;;;;;;2.60;1.20;;;;;;;19.21;55.17;101468.13;4989986;28;20412;-68
2022/12/27 02:57:51;;;;;;;3.23;1.00;;;;;;;19.23;54.80;101462.94;4944033;28;20454;-68
2022/12/27 03:03:22;;;;;;;3.00;1.30;;;;;;;19.20;54.89;101463.59;4964398;28;20464;-68
2022/12/27 03:18:09;;;;;;;4.13;1.27;;;;;;;19.18;55.10;101468.00;4969777;28;20421;-68
2022/12/27 03:26:03;;;;;;;2.70;1.10;;;;;;;19.18;55.69;101470.88;4955876;28;20785;-69
2022/12/27 03:34:31;;;;;;;3.83;1.10;;;;;;;19.17;55.14;101472.91;4980129;28;20472;-68
2022/12/27 03:40:33;;;;;;;2.00;0.70;;;;;;;19.18;54.86;101473.75;4957467;28;20534;-68
2022/12/27 03:43:12;;;;;;;4.20;1.40;;;;;;;19.13;55.33;101469.09;4942151;28;20437;-68
2022/12/27 03:48:29;;;;;;;3.20;1.27;;;;;;;19.15;55.27;101480.16;4972001;28;20437;-68
2022/12/27 03:50:56;;;;;;;3.53;1.10;;;;;;;19.14;55.46;101476.50;5035651;28;20422;-69
2022/12/27 03:53:37;;;;;;;2.60;1.20;;;;;;;19.16;55.03;101479.81;4965184;28;20421;-69
2022/12/27 03:56:03;;;;;;;2.50;1.20;;;;;;;19.14;55.30;101476.50;4968149;28;20528;-68
2022/12/27 03:58:29;;;;;;;2.40;0.93;;;;;;;19.15;55.12;101483.88;4936318;28;20481;-68
2022/12/27 04:00:54;;;;;;;2.67;1.00;;;;;;;19.13;55.15;101482.56;4970090;28;20511;-69
2022/12/27 04:03:20;;;;;;;2.50;1.10;;;;;;;19.14;55.09;101487.94;4976850;28;20187;-68
2022/12/27 04:05:45;;;;;;;2.00;0.90;;;;;;;19.16;54.91;101487.59;4969247;28;20178;-69
2022/12/27 04:35:31;;;;;;;2.40;1.03;;;;;;;19.16;54.95;101497.00;4962418;28;20893;-68
2022/12/27 04:37:56;;;;;;;3.40;1.17;;;;;;;19.14;55.02;101493.66;4955072;28;20429;-68
2022/12/27 04:57:01;;;;;;;3.03;1.10;;;;;;;19.15;54.96;101489.59;5022073;28;20460;-68
2022/12/27 05:02:10;;;;;;;2.70;1.00;;;;;;;19.15;54.82;101483.88;4971794;28;20189;-69
2022/12/27 05:04:36;;;;;;;1.70;0.70;;;;;;;19.12;55.06;101481.72;4952967;28;20442;-68
2022/12/27 05:13:58;;;;;;;2.33;0.90;;;;;;;19.14;54.93;101481.38;4964590;28;20210;-68
2022/12/27 05:15:15;;;;;;;2.33;0.80;;;;;;;19.13;54.94;101488.28;4958575;28;20456;-68
2022/12/27 05:17:40;;;;;;;2.73;1.10;;;;;;;19.14;54.96;101490.81;4970749;28;20426;-68
2022/12/27 05:20:09;;;;;;;2.10;0.80;;;;;;;19.14;55.34;101498.53;4966009;28;20214;-69
2022/12/27 05:25:34;;;;;;;2.20;0.97;;;;;;;19.12;55.06;101503.81;4969000;28;20425;-68
2022/12/27 05:28:04;;;;;;;3.93;1.10;;;;;;;19.13;55.21;101502.59;4969140;28;20441;-68
2022/12/27 05:30:32;;;;;;;2.13;1.07;;;;;;;19.14;54.93;101496.53;4934815;28;20646;-68
2022/12/27 05:32:57;;;;;;;2.47;0.93;;;;;;;19.13;55.05;101505.47;4952119;28;20479;-68
2022/12/27 05:35:23;;;;;;;2.43;1.10;;;;;;;19.16;54.84;101508.44;4969665;28;20908;-68
2022/12/27 05:37:48;;;;;;;3.70;0.90;;;;;;;19.15;55.02;101505.94;4942737;29;20195;-68
2022/12/27 05:40:14;;;;;;;2.10;0.90;;;;;;;19.11;55.05;101514.41;4950099;28;20211;-68
2022/12/27 05:42:39;;;;;;;2.13;0.80;;;;;;;19.14;54.96;101510.84;4953320;28;20178;-68
2022/12/27 05:45:05;;;;;;;3.53;1.03;;;;;;;19.13;55.08;101511.19;4970070;28;20186;-69
2022/12/27 05:47:31;;;;;;;2.80;0.80;;;;;;;19.15;54.92;101515.38;4954272;28;20218;-68
2022/12/27 05:49:56;;;;;;;3.60;1.20;;;;;;;19.11;55.05;101520.13;4966921;28;20445;-69
2022/12/27 05:52:22;;;;;;;2.20;0.90;;;;;;;19.17;55.20;101518.69;4971346;28;20189;-69
2022/12/27 05:54:48;;;;;;;3.23;1.03;;;;;;;19.17;54.90;101532.19;4951003;28;20201;-68
2022/12/27 05:57:13;;;;;;;1.73;0.87;;;;;;;19.14;54.80;101519.44;4951990;28;20993;-68
2022/12/27 05:59:39;;;;;;;2.37;1.00;;;;;;;19.19;54.89;101529.81;4967004;28;20241;-68
2022/12/27 06:02:04;;;;;;;2.53;1.10;;;;;;;19.17;54.83;101529.34;4966081;28;20190;-68
2022/12/27 06:04:29;;;;;;;1.90;0.80;;;;;;;19.13;54.89;101522.63;4971001;28;20178;-68
2022/12/27 06:06:55;;;;;;;1.90;0.80;;;;;;;19.14;54.84;101519.44;4966631;28;20199;-68
2022/12/27 06:09:20;;;;;;;2.17;0.93;;;;;;;19.14;54.70;101510.00;4970301;28;20198;-68
2022/12/27 06:11:46;;;;;;;1.80;0.80;;;;;;;19.14;54.78;101524.31;4952818;28;20179;-68
2022/12/27 06:14:11;;;;;;;4.97;0.90;;;;;;;19.14;54.88;101510.84;4967061;28;20205;-68
2022/12/27 06:16:37;;;;;;;2.13;0.93;;;;;;;19.14;55.04;101521.44;4970178;28;20179;-68
2022/12/27 06:19:02;;;;;;;1.80;0.83;;;;;;;19.15;54.72;101523.97;4947293;28;20194;-69
2022/12/27 06:21:28;;;;;;;2.10;0.97;;;;;;;19.18;55.08;101526.13;4950850;28;20241;-69
2022/12/27 06:23:53;;;;;;;2.97;1.17;;;;;;;19.15;54.84;101523.97;4971190;28;20190;-68
2022/12/27 06:26:20;;;;;;;2.67;1.00;;;;;;;19.17;54.96;101533.00;4952926;28;20195;-68
2022/12/27 06:28:48;;;;;;;3.80;1.07;;;;;;;19.19;54.94;101530.66;4969872;28;20178;-68
2022/12/27 06:31:13;;;;;;;2.50;1.03;;;;;;;19.18;54.76;101534.72;4964163;28;20509;-68
2022/12/27 06:33:39;;;;;;;3.40;1.20;;;;;;;19.19;54.70;101530.66;4950362;29;20419;-68
2022/12/27 06:36:09;;;;;;;1.97;0.70;;;;;;;19.17;54.83;101535.88;4950512;29;20194;-68
2022/12/27 06:38:34;;;;;;;1.80;0.87;;;;;;;19.15;54.54;101535.41;4966833;28;20695;-68
2022/12/27 06:41:01;;;;;;;2.10;0.80;;;;;;;19.15;54.95;101546.84;4953057;28;20474;-68
2022/12/27 06:43:27;;;;;;;1.93;0.80;;;;;;;19.13;54.88;101545.53;4961193;28;20191;-68
2022/12/27 06:46:00;;;;;;;3.23;1.33;;;;;;;19.19;54.83;101553.56;4950119;28;20450;-68
2022/12/27 06:48:25;;;;;;;2.30;1.10;;;;;;;19.14;55.13;101545.19;4934434;28;20661;-68
2022/12/27 06:50:51;;;;;;;3.33;1.03;;;;;;;19.17;54.85;101543.66;4938392;29;20418;-68
2022/12/27 06:53:16;;;;;;;2.07;0.90;;;;;;;19.17;54.77;101541.59;4965685;28;20186;-68
2022/12/27 06:55:42;;;;;;;2.07;1.00;;;;;;;19.15;54.78;101543.16;4959309;28;20187;-68
2022/12/27 06:58:07;;;;;;;2.13;0.73;;;;;;;19.14;54.70;101550.91;4966365;28;20248;-68
2022/12/27 07:00:33;;;;;;;1.90;0.77;;;;;;;19.16;54.83;101556.28;4985445;28;20234;-68
2022/12/27 07:02:58;;;;;;;2.27;1.20;;;;;;;19.17;54.76;101555.91;4970140;28;20181;-68
2022/12/27 07:05:23;;;;;;;1.80;0.90;;;;;;;19.16;54.87;101557.13;4989791;28;20624;-68
2022/12/27 07:07:52;;;;;;;3.40;1.20;;;;;;;19.18;54.66;101557.63;4989705;28;20588;-68
2022/12/27 07:10:17;;;;;;;2.27;1.00;;;;;;;19.17;54.75;101557.97;4949689;28;20293;-68
2022/12/27 07:12:43;;;;;;;2.90;1.20;;;;;;;19.15;54.75;101558.31;4953034;28;21083;-69
2022/12/27 07:15:08;;;;;;;2.07;0.90;;;;;;;19.17;54.93;101555.09;4944298;28;20193;-69
2022/12/27 07:17:35;;;;;;;2.10;0.80;;;;;;;19.12;54.98;101561.88;4953647;28;20186;-68
2022/12/27 07:20:01;;;;;;;2.43;1.10;;;;;;;19.16;54.90;101565.69;4974712;28;20202;-69
2022/12/27 07:22:26;;;;;;;2.40;0.93;;;;;;;19.18;54.71;101565.34;4963311;28;20445;-68
2022/12/27 07:24:52;;;;;;;2.33;1.00;;;;;;;19.17;54.61;101575.97;4987306;28;20429;-68
2022/12/27 07:27:17;;;;;;;2.30;0.90;;;;;;;19.18;54.81;101579.66;4950614;28;20243;-68
2022/12/27 07:29:43;;;;;;;2.00;1.07;;;;;;;19.16;54.88;101582.06;4975823;28;20559;-68
2022/12/27 07:32:08;;;;;;;2.20;0.90;;;;;;;19.20;54.67;101577.28;4967550;28;20209;-69
2022/12/27 07:34:33;;;;;;;2.33;1.10;;;;;;;19.18;54.49;101571.94;4950917;28;20190;-69
2022/12/27 07:36:59;;;;;;;1.93;0.93;;;;;;;19.16;54.80;101577.16;4969025;28;20186;-68
2022/12/27 07:39:24;;;;;;;2.10;1.00;;;;;;;19.15;54.73;101578.34;4958304;28;20209;-68
2022/12/27 07:41:50;;;;;;;4.20;1.50;;;;;;;19.17;54.70;101587.41;4988948;28;20398;-68
2022/12/27 07:44:15;;;;;;;1.83;0.87;;;;;;;19.17;54.98;101589.44;4970669;28;20189;-68
2022/12/27 07:46:41;;;;;;;1.60;0.77;;;;;;;19.16;54.47;101588.59;4965463;28;20206;-68
2022/12/27 07:49:08;;;;;;;3.00;1.00;;;;;;;19.16;54.76;101587.78;4959721;28;20189;-68
2022/12/27 07:51:34;;;;;;;2.10;0.93;;;;;;;19.16;54.60;101591.47;4957542;28;20213;-68
2022/12/27 07:53:59;;;;;;;1.60;0.70;;;;;;;19.19;54.40;101584.19;4971504;28;20431;-68
2022/12/27 07:56:26;;;;;;;2.07;0.90;;;;;;;19.17;54.80;101587.41;4969946;28;20182;-68
2022/12/27 07:58:51;;;;;;;1.80;0.90;;;;;;;19.16;54.67;101582.06;4960142;28;20233;-68
2022/12/27 08:01:18;;;;;;;2.50;0.77;;;;;;;19.15;54.55;101581.22;4968117;28;20473;-69
2022/12/27 08:03:43;;;;;;;1.87;0.83;;;;;;;19.18;54.51;101585.41;5008780;28;20186;-68
2022/12/27 08:06:27;;;;;;;1.60;0.80;;;;;;;19.16;54.42;101585.75;4952511;28;20480;-68
2022/12/27 08:08:53;;;;;;;2.70;1.10;;;;;;;19.18;54.30;101577.66;5017663;28;20182;-68
2022/12/27 08:11:19;;;;;;;1.57;0.60;;;;;;;19.16;54.65;101570.59;4970466;28;20444;-68
2022/12/27 08:13:44;;;;;;;1.67;0.80;;;;;;;19.17;54.52;101573.09;5017962;28;20665;-68
2022/12/27 08:16:20;;;;;;;1.90;1.10;;;;;;;19.14;54.67;101562.38;4968410;28;20186;-68
2022/12/27 08:18:46;;;;;;;3.20;0.70;;;;;;;19.16;54.50;101562.84;5034084;28;20203;-68
2022/12/27 08:21:11;;;;;;;2.30;1.10;;;;;;;19.17;54.58;101573.09;4953332;28;20477;-68
2022/12/27 08:23:37;;;;;;;2.00;0.93;;;;;;;19.17;54.52;101573.09;4969062;28;20186;-68
2022/12/27 08:26:02;;;;;;;2.20;1.00;;;;;;;19.17;54.43;101569.41;4988574;28;20182;-68
2022/12/27 08:28:30;;;;;;;1.60;0.70;;;;;;;19.18;54.20;101565.34;4954890;28;20173;-68
2022/12/27 08:30:56;;;;;;;1.63;0.80;;;;;;;19.20;54.48;101565.81;4967998;28;20243;-68
2022/12/27 08:33:21;;;;;;;2.80;1.17;;;;;;;19.22;54.66;101570.03;4955014;28;20452;-68
2022/12/27 08:35:47;;;;;;;1.80;0.80;;;;;;;19.19;54.50;101576.47;4977521;28;20194;-68
2022/12/27 08:38:12;;;;;;;2.20;1.17;;;;;;;19.24;54.28;101579.13;5035223;28;20174;-68
2022/12/27 08:40:42;;;;;;;2.80;0.90;;;;;;;19.19;54.53;101585.03;5032779;28;20608;-68
2022/12/27 08:43:07;;;;;;;2.70;1.00;;;;;;;19.17;54.56;101587.41;4968554;28;20194;-68
2022/12/27 08:45:33;;;;;;;2.37;0.90;;;;;;;19.21;54.31;101596.16;4951830;28;21246;-68
2022/12/27 08:47:59;;;;;;;1.50;0.77;;;;;;;19.19;54.61;101589.91;4963771;28;20198;-68
2022/12/27 08:50:25;;;;;;;1.70;0.80;;;;;;;19.20;54.51;101583.00;4971133;28;20426;-68
2022/12/27 08:52:51;;;;;;;1.93;1.03;;;;;;;19.21;54.99;101584.69;4938878;28;20618;-68
2022/12/27 08:55:16;;;;;;;2.17;0.97;;;;;;;19.20;54.48;101583.84;4971135;28;20479;-68
2022/12/27 08:57:42;;;;;;;1.70;0.73;;;;;;;19.21;54.25;101588.38;4969219;28;20272;-68
2022/12/27 09:00:08;;;;;;;2.60;1.20;;;;;;;19.20;54.37;101595.31;4973303;28;20295;-69
2022/12/27 09:02:33;;;;;;;2.70;1.10;;;;;;;19.18;54.36;101596.84;4948549;28;20187;-69
2022/12/27 09:04:59;;;;;;;2.33;1.00;;;;;;;19.19;54.50;101610.81;5046348;28;20440;-68
2022/12/27 09:07:24;;;;;;;2.23;0.90;;;;;;;19.19;54.36;101604.25;4988251;28;20208;-68
2022/12/27 09:09:50;;;;;;;1.90;0.83;;;;;;;19.23;54.67;101608.09;4951542;28;20189;-68
2022/12/27 09:12:15;;;;;;;3.33;1.00;;;;;;;19.23;54.46;101611.81;4979290;28;20194;-68
2022/12/27 09:14:40;;;;;;;2.23;1.10;;;;;;;19.27;54.25;101615.63;4954674;28;20186;-68
2022/12/27 09:17:08;;;;;;;1.77;0.73;;;;;;;19.22;54.44;101615.84;4970140;28;20178;-68
2022/12/27 09:19:33;;;;;;;2.07;1.07;;;;;;;19.22;54.41;101615.84;4941311;28;20244;-68
2022/12/27 09:22:02;;;;;;;1.83;0.97;;;;;;;19.22;54.24;101621.56;5010527;28;20469;-68
2022/12/27 09:24:27;;;;;;;1.70;0.90;;;;;;;19.18;54.59;101620.59;4951014;28;20543;-68
2022/12/27 09:26:53;;;;;;;1.63;0.80;;;;;;;19.22;54.66;101615.84;4967194;28;20437;-68
2022/12/27 09:29:18;;;;;;;2.77;1.03;;;;;;;19.21;54.33;101628.47;4961399;28;20526;-68
2022/12/27 09:31:44;;;;;;;2.00;1.10;;;;;;;19.25;54.35;101632.31;4954260;28;20551;-68
2022/12/27 09:34:11;;;;;;;1.83;0.90;;;;;;;19.21;54.63;101628.47;4964862;28;20580;-68
2022/12/27 09:36:37;;;;;;;2.10;0.90;;;;;;;19.20;54.60;101631.66;5021077;28;20186;-68
2022/12/27 09:39:03;;;;;;;1.70;0.90;;;;;;;19.22;54.45;101638.75;4954020;28;20982;-68
2022/12/27 09:41:59;;;;;;;2.03;1.07;;;;;;;19.20;54.47;101643.97;5038317;28;20510;-68
2022/12/27 09:44:35;;;;;;;1.70;0.77;;;;;;;19.21;54.47;101636.22;4973933;28;20694;-68
2022/12/27 09:47:05;;;;;;;2.37;1.07;;;;;;;19.17;54.54;101647.53;4971549;28;20547;-68
2022/12/27 09:49:35;;;;;;;2.53;1.27;;;;;;;19.22;54.44;101638.75;4958593;28;20460;-68
2022/12/27 09:52:13;;;;;;;1.60;0.77;;;;;;;19.21;54.34;101636.22;4954034;28;20441;-68
2022/12/27 09:54:42;;;;;;;2.43;1.17;;;;;;;19.19;54.78;101636.56;4971361;28;20440;-68
2022/12/27 09:57:23;;;;;;;1.50;0.70;;;;;;;19.23;54.49;101640.44;4971286;28;20512;-68
2022/12/27 09:59:51;;;;;;;2.17;1.03;;;;;;;19.21;54.43;101639.91;5003744;28;20862;-68
2022/12/27 10:02:22;;;;;;;1.90;0.83;;;;;;;19.20;54.58;101641.09;4966034;28;20877;-68
2022/12/27 10:04:48;;;;;;;1.80;0.80;;;;;;;19.23;54.42;101643.31;4956249;28;20448;-68
2022/12/27 10:07:19;;;;;;;1.90;0.90;;;;;;;19.20;54.38;101638.25;4956940;28;20425;-68
2022/12/27 10:10:20;;;;;;;2.00;0.97;;;;;;;19.18;54.63;101632.03;4986957;28;20265;-68
2022/12/27 10:12:59;;;;;;;1.73;0.70;;;;;;;19.26;54.63;101634.00;4972948;28;20445;-68
2022/12/27 10:15:50;;;;;;;2.13;0.90;;;;;;;19.21;54.34;101631.31;4981035;28;20495;-68
2022/12/27 10:18:26;;;;;;;1.97;0.90;;;;;;;19.21;54.36;101625.59;5009980;28;20422;-68
2022/12/27 10:20:57;;;;;;;1.97;1.10;;;;;;;19.20;54.60;101626.78;5023289;28;20469;-68
2022/12/27 10:23:33;;;;;;;2.07;0.80;;;;;;;19.19;54.38;101622.25;4970029;28;20430;-67
2022/12/27 10:26:03;;;;;;;2.17;1.00;;;;;;;19.23;54.46;101613.81;4958100;28;20425;-68
2022/12/27 10:28:40;;;;;;;2.13;1.17;;;;;;;19.19;54.34;101609.97;4941102;28;20476;-68
2022/12/27 10:31:11;;;;;;;1.77;0.77;;;;;;;19.18;54.98;101611.16;5017080;28;20421;-68
2022/12/27 10:33:37;;;;;;;2.00;0.97;;;;;;;19.18;54.76;101612.00;4995205;28;21180;-68
2022/12/27 10:36:08;;;;;;;2.53;0.90;;;;;;;19.20;54.53;101600.19;4969808;28;20433;-68
2022/12/27 10:38:33;;;;;;;1.70;0.80;;;;;;;19.21;54.50;101601.88;4952903;28;20197;-68
2022/12/27 10:41:17;;;;;;;2.20;1.17;;;;;;;19.25;54.50;101595.09;4970809;28;20468;-68
2022/12/27 10:43:43;;;;;;;1.70;0.80;;;;;;;19.19;54.90;101592.78;4988941;28;20174;-68
2022/12/27 10:46:16;;;;;;;2.27;1.10;;;;;;;19.22;54.51;101598.66;4938280;28;20511;-68
2022/12/27 10:49:14;;;;;;;4.00;1.30;;;;;;;19.20;54.59;101592.44;4955652;28;20741;-68
2022/12/27 10:51:40;;;;;;;4.07;1.10;;;;;;;19.24;54.43;101586.88;4980255;28;20583;-68
2022/12/27 10:54:34;;;;;;;2.47;1.33;;;;;;;19.24;54.78;101607.75;4985379;28;20441;-68
2022/12/27 10:57:23;;;;;;;2.20;1.10;;;;;;;19.18;54.53;101599.72;4967750;28;20252;-69
2022/12/27 11:00:06;;;;;;;3.10;1.10;;;;;;;19.26;54.38;101608.22;5032433;28;20561;-68
2022/12/27 11:02:32;;;;;;;2.60;1.10;;;;;;;19.21;54.45;101602.69;5036532;28;20463;-68
2022/12/27 11:04:58;;;;;;;1.60;0.80;;;;;;;19.27;54.24;101595.56;4947189;28;20445;-68
2022/12/27 11:07:28;;;;;;;2.03;1.10;;;;;;;19.25;54.48;101603.69;4937298;28;20249;-68
2022/12/27 11:10:05;;;;;;;2.63;1.10;;;;;;;19.25;54.40;101603.69;4981100;28;20437;-68
2022/12/27 11:12:31;;;;;;;1.90;1.00;;;;;;;19.21;54.52;101602.69;4940977;28;20520;-68
2022/12/27 11:14:58;;;;;;;2.27;0.90;;;;;;;19.26;54.25;101602.50;5019916;28;20495;-68
2022/12/27 11:17:47;;;;;;;1.90;1.00;;;;;;;19.27;54.39;101600.47;4971132;28;20454;-68
2022/12/27 11:20:19;;;;;;;2.40;1.00;;;;;;;19.25;54.68;101603.69;4968686;28;20468;-68
2022/12/27 11:22:47;;;;;;;2.57;1.23;;;;;;;19.24;54.86;101590.56;4963121;28;20455;-68
2022/12/27 11:25:13;;;;;;;2.23;0.97;;;;;;;19.30;54.23;101597.75;5018661;28;20807;-68
2022/12/27 11:27:38;;;;;;;1.60;0.90;;;;;;;19.27;54.70;101589.84;5036707;28;20440;-68
2022/12/27 11:30:04;;;;;;;2.33;1.00;;;;;;;19.25;54.44;101589.38;4973558;28;20193;-68
2022/12/27 11:32:30;;;;;;;1.90;0.90;;;;;;;19.26;54.53;101590.22;4929410;28;20186;-68
2022/12/27 11:34:55;;;;;;;2.10;1.00;;;;;;;19.23;54.46;101588.06;4952364;28;20182;-68
2022/12/27 11:37:24;;;;;;;2.13;1.00;;;;;;;19.23;54.54;101586.03;4952562;28;20187;-68
2022/12/27 11:39:54;;;;;;;2.30;1.10;;;;;;;19.26;54.46;101581.63;4955147;28;20214;-68
2022/12/27 11:42:24;;;;;;;2.00;0.90;;;;;;;19.29;54.40;101578.91;5017640;28;20464;-68
2022/12/27 11:45:02;;;;;;;2.80;1.13;;;;;;;19.30;54.22;101577.69;4983915;28;20524;-68
2022/12/27 11:47:46;;;;;;;2.00;0.90;;;;;;;19.27;54.29;101577.56;4952234;28;20524;-67
2022/12/27 11:50:30;;;;;;;2.07;1.00;;;;;;;19.29;54.36;101573.16;4950558;28;20459;-67
2022/12/27 11:53:11;;;;;;;2.30;0.90;;;;;;;19.28;54.58;101570.66;5055721;28;20505;-68
2022/12/27 11:55:42;;;;;;;2.63;1.10;;;;;;;19.26;54.49;101576.72;4970226;28;20441;-67
2022/12/27 11:58:27;;;;;;;2.13;1.10;;;;;;;19.26;54.44;101568.13;4970992;28;20441;-67
2022/12/27 12:01:28;;;;;;;1.67;0.90;;;;;;;19.25;54.54;101562.75;4984488;28;20947;-68
2022/12/27 12:03:58;;;;;;;2.27;0.90;;;;;;;19.26;54.66;101559.53;4967987;28;20455;-67
2022/12/27 12:06:42;;;;;;;2.50;1.10;;;;;;;19.24;54.59;101561.94;5036045;28;20518;-68
2022/12/27 12:09:43;;;;;;;1.83;1.03;;;;;;;19.22;54.65;101558.59;5025846;28;20489;-68
2022/12/27 12:12:17;;;;;;;2.17;0.80;;;;;;;19.21;54.61;101554.03;4926036;29;20589;-67
2022/12/27 12:15:05;;;;;;;3.10;1.43;;;;;;;19.26;54.76;101565.28;4978674;28;20432;-68
2022/12/27 12:17:55;;;;;;;2.00;0.90;;;;;;;19.28;54.40;101564.94;4953460;28;20481;-68
2022/12/27 12:20:35;;;;;;;2.30;0.90;;;;;;;19.25;54.50;101574.22;4967727;28;21284;-68
2022/12/27 12:23:17;;;;;;;2.20;1.30;;;;;;;19.30;54.38;101566.25;4973264;28;20438;-67
2022/12/27 12:26:00;;;;;;;3.40;1.30;;;;;;;19.26;54.72;101558.72;4969299;28;20932;-68
2022/12/27 12:28:31;;;;;;;1.73;1.10;;;;;;;19.26;54.72;101562.41;5011848;28;20454;-68
2022/12/27 12:31:24;;;;;;;2.37;1.07;;;;;;;19.25;54.60;101555.03;4971347;28;20450;-68
2022/12/27 12:34:02;;;;;;;2.60;1.10;;;;;;;19.27;54.60;101555.50;4969472;28;20429;-67
2022/12/27 12:37:03;;;;;;;2.43;1.00;;;;;;;19.29;54.48;101555.13;4971274;28;20442;-67
2022/12/27 12:39:36;;;;;;;4.20;1.00;;;;;;;19.23;54.51;101548.81;4969681;28;20484;-68
2022/12/27 12:42:23;;;;;;;1.70;0.90;;;;;;;19.26;54.52;101553.81;5015856;28;20473;-67
2022/12/27 12:45:10;;;;;;;1.83;0.90;;;;;;;19.25;54.46;101552.16;4970615;28;20453;-68
2022/12/27 12:48:05;;;;;;;2.10;0.90;;;;;;;19.28;54.40;101550.59;4961878;28;20522;-68
2022/12/27 12:50:49;;;;;;;1.80;0.80;;;;;;;19.29;54.29;101556.00;4970574;28;20619;-68
2022/12/27 12:53:39;;;;;;;1.80;1.00;;;;;;;19.24;54.52;101559.09;4983918;28;20980;-68
2022/12/27 12:56:28;;;;;;;1.70;0.70;;;;;;;19.23;54.81;101548.81;4972288;28;20452;-68
2022/12/27 12:59:15;;;;;;;1.83;0.93;;;;;;;19.25;54.50;101555.03;4985605;28;20473;-69
2022/12/27 13:01:53;;;;;;;2.40;1.10;;;;;;;19.26;54.71;101556.69;4988278;28;20494;-68
2022/12/27 13:04:28;;;;;;;1.60;0.83;;;;;;;19.25;54.60;101548.44;4976621;28;20449;-69
2022/12/27 13:07:15;;;;;;;1.77;0.93;;;;;;;19.26;54.46;101545.22;5033930;28;20426;-69
2022/12/27 13:10:08;;;;;;;1.90;0.90;;;;;;;19.25;54.48;101537.84;4973551;28;20426;-68
2022/12/27 13:12:56;;;;;;;2.37;0.93;;;;;;;19.26;54.62;101528.06;4975133;28;20500;-69
2022/12/27 13:15:32;;;;;;;1.93;0.90;;;;;;;19.26;54.40;101542.38;4957227;28;20901;-69
2022/12/27 13:18:18;;;;;;;2.17;1.10;;;;;;;19.28;54.31;101525.69;4973921;28;20448;-68
2022/12/27 13:21:02;;;;;;;1.87;0.93;;;;;;;19.28;54.51;101534.28;5039616;28;20837;-68
2022/12/27 13:23:55;;;;;;;1.70;0.90;;;;;;;19.27;54.44;101529.72;4970381;28;20486;-68